Time;durP1;ratioP1;P1;durP2;ratioP2;P2;SDS_P1;SDS_P2;PMS_P1;PMS_P2;Temp;Humidity;BMP_temperature;BMP_pressure;BME280_temperature;BME280_humidity;BME280_pressure;Samples;Min_cycle;Max_cycle;Signal;HPM_P1;HPM_P2
2022/05/24 00:02:25;;;;;;;12.75;8.43;;;;;;;19.68;61.16;100068.22;4994801;28;20045;-64
2022/05/24 00:04:50;;;;;;;13.55;9.45;;;;;;;19.74;61.46;100079.81;4995163;28;20042;-64
2022/05/24 00:07:15;;;;;;;14.25;9.40;;;;;;;19.72;61.46;100082.03;4994475;28;20093;-65
2022/05/24 00:09:41;;;;;;;16.95;10.75;;;;;;;19.77;61.29;100080.00;4994484;28;20430;-64
2022/05/24 00:12:07;;;;;;;15.55;9.90;;;;;;;19.41;62.42;100081.84;4994500;28;20065;-64
2022/05/24 00:17:16;;;;;;;16.67;11.45;;;;;;;19.03;63.49;100085.75;4994529;28;20382;-66
2022/05/24 00:19:42;;;;;;;17.55;12.02;;;;;;;19.48;62.71;100084.97;4994515;28;20030;-66
2022/05/24 00:22:07;;;;;;;22.80;13.20;;;;;;;19.75;61.62;100081.44;4993931;28;20041;-65
2022/05/24 00:24:32;;;;;;;26.25;15.13;;;;;;;19.50;62.09;100082.75;4994231;28;20085;-66
2022/05/24 00:26:58;;;;;;;28.75;16.38;;;;;;;19.53;62.63;100067.72;4994404;28;20418;-66
2022/05/24 00:29:23;;;;;;;23.33;16.80;;;;;;;19.26;63.21;100082.88;4994570;28;20041;-65
2022/05/24 00:31:49;;;;;;;25.52;18.15;;;;;;;19.46;62.32;100072.75;4994644;28;20041;-64
2022/05/24 00:34:15;;;;;;;28.92;19.58;;;;;;;19.57;61.94;100077.72;4994031;28;20045;-65
2022/05/24 00:36:40;;;;;;;35.97;20.17;;;;;;;19.46;62.61;100068.09;4994017;28;20034;-66
2022/05/24 00:39:05;;;;;;;30.13;20.17;;;;;;;19.91;61.30;100066.38;4992519;28;20031;-66
2022/05/24 00:41:40;;;;;;;40.33;23.00;;;;;;;20.20;59.72;100063.31;4993823;28;20038;-66
2022/05/24 00:44:19;;;;;;;37.83;26.08;;;;;;;19.76;60.98;100059.31;4993639;28;20053;-67
2022/05/24 00:46:51;;;;;;;44.78;24.10;;;;;;;20.57;59.08;100052.88;4994399;28;20058;-66
2022/05/24 00:49:34;;;;;;;37.33;22.70;;;;;;;20.38;59.83;100054.16;4993931;28;20507;-68
2022/05/24 00:52:16;;;;;;;35.92;23.70;;;;;;;20.15;59.92;100053.28;4991467;28;20045;-67
2022/05/24 00:54:42;;;;;;;33.85;23.85;;;;;;;20.27;60.04;100047.31;4993785;28;20049;-65
2022/05/24 00:57:27;;;;;;;38.30;24.75;;;;;;;20.64;58.75;100052.41;4993771;28;20474;-66
2022/05/24 00:59:59;;;;;;;35.28;22.27;;;;;;;20.01;60.34;100047.03;4993644;28;20079;-66
2022/05/24 01:02:24;;;;;;;35.38;21.67;;;;;;;19.82;61.31;100049.09;4993479;28;20125;-65
2022/05/24 01:04:50;;;;;;;41.15;23.98;;;;;;;20.02;60.89;100051.41;4993954;28;20386;-66
2022/05/24 01:07:15;;;;;;;34.10;23.98;;;;;;;20.26;59.95;100041.06;4993395;28;20053;-66
2022/05/24 01:09:43;;;;;;;35.08;24.25;;;;;;;20.43;59.40;100048.56;4993395;28;20038;-66
2022/05/24 01:12:18;;;;;;;37.38;23.40;;;;;;;20.21;59.54;100046.63;4993510;28;20100;-66
2022/05/24 01:14:44;;;;;;;32.40;24.17;;;;;;;19.77;60.97;100039.09;4993059;28;20121;-65
2022/05/24 01:17:10;;;;;;;37.58;24.63;;;;;;;19.85;61.36;100049.28;4993202;28;20038;-65
2022/05/24 01:19:43;;;;;;;40.65;25.67;;;;;;;19.88;61.19;100053.34;4993703;28;20379;-65
2022/05/24 01:22:19;;;;;;;41.58;26.48;;;;;;;19.27;63.75;100045.56;4992887;28;20464;-65
2022/05/24 01:24:55;;;;;;;44.03;27.67;;;;;;;20.39;59.70;100045.66;4993112;28;20082;-65
2022/05/24 01:27:21;;;;;;;39.00;26.10;;;;;;;20.33;59.93;100046.06;4993213;28;20414;-65
2022/05/24 01:29:46;;;;;;;39.60;26.35;;;;;;;19.73;62.06;100045.50;4993236;28;20038;-66
2022/05/24 01:37:40;;;;;;;48.70;27.08;;;;;;;19.82;62.10;100027.28;4992438;28;20214;-66
2022/05/24 01:40:05;;;;;;;41.50;27.58;;;;;;;19.85;61.66;100030.22;4992744;28;20555;-66
2022/05/24 01:42:31;;;;;;;46.72;27.90;;;;;;;19.94;60.96;100033.84;4992586;28;20027;-66
2022/05/24 01:45:18;;;;;;;42.22;27.42;;;;;;;20.37;60.19;100038.88;4992727;28;20070;-67
2022/05/24 01:47:49;;;;;;;38.85;27.73;;;;;;;20.38;60.02;100035.88;4992225;28;20511;-65
2022/05/24 01:50:17;;;;;;;42.03;28.38;;;;;;;20.32;59.85;100048.03;4992003;28;20129;-66
2022/05/24 01:52:55;;;;;;;40.28;28.20;;;;;;;20.69;59.47;100035.94;4992301;28;20636;-67
2022/05/24 01:55:42;;;;;;;43.78;27.80;;;;;;;20.25;60.93;100039.44;4992049;28;20053;-66
2022/05/24 01:58:12;;;;;;;40.95;27.40;;;;;;;20.07;60.93;100043.09;4991881;28;20034;-66
2022/05/24 02:00:40;;;;;;;37.20;27.13;;;;;;;19.88;61.94;100037.78;4991768;28;20038;-65
2022/05/24 02:03:06;;;;;;;40.08;25.92;;;;;;;20.11;60.81;100036.72;4991334;28;20495;-66
2022/05/24 02:05:39;;;;;;;37.05;25.60;;;;;;;19.89;61.60;100031.22;4991754;28;20030;-66
2022/05/24 02:08:07;;;;;;;40.88;27.27;;;;;;;20.57;59.57;100033.75;4991529;28;20046;-68
2022/05/24 02:10:59;;;;;;;36.40;26.95;;;;;;;19.63;62.56;100035.63;4992628;28;20052;-66
2022/05/24 02:13:33;;;;;;;39.60;25.58;;;;;;;19.73;61.72;100029.94;5006534;28;20050;-65
2022/05/24 02:16:02;;;;;;;38.97;26.05;;;;;;;20.01;61.49;100031.50;4992505;28;20042;-65
2022/05/24 02:18:30;;;;;;;38.03;26.38;;;;;;;19.77;61.69;100027.41;4992693;28;20137;-66
2022/05/24 02:20:55;;;;;;;38.75;26.35;;;;;;;19.81;62.14;100018.28;4992769;28;20034;-66
2022/05/24 02:23:21;;;;;;;39.40;25.55;;;;;;;19.57;62.92;100022.38;4992063;28;20038;-66
2022/05/24 02:25:55;;;;;;;35.78;24.13;;;;;;;20.01;61.74;100030.69;4992950;28;20045;-66
2022/05/24 02:28:27;;;;;;;39.10;25.55;;;;;;;19.68;62.33;100034.69;4992451;28;20537;-65
2022/05/24 02:30:56;;;;;;;35.55;23.63;;;;;;;19.84;61.65;100047.69;4991136;28;20434;-65
2022/05/24 02:33:23;;;;;;;35.65;24.35;;;;;;;19.60;62.21;100038.94;4991492;28;20038;-66
2022/05/24 02:35:49;;;;;;;36.05;24.90;;;;;;;19.85;62.00;100035.66;4989522;28;20497;-66
2022/05/24 02:38:15;;;;;;;34.10;25.48;;;;;;;20.17;60.66;100032.78;4972711;28;20073;-67
2022/05/24 02:43:24;;;;;;;38.63;25.90;;;;;;;19.40;62.32;100038.53;4992272;28;20045;-66
2022/05/24 02:45:50;;;;;;;32.70;24.70;;;;;;;18.89;64.78;100049.53;4992071;28;20042;-67
2022/05/24 02:48:15;;;;;;;35.50;26.23;;;;;;;18.62;64.86;100057.59;4992077;28;20088;-66
2022/05/24 02:50:41;;;;;;;37.78;25.45;;;;;;;19.19;63.02;100057.16;4991991;28;20109;-66
2022/05/24 02:53:07;;;;;;;41.42;25.88;;;;;;;18.99;63.87;100061.06;4991883;28;20039;-66
2022/05/24 02:55:32;;;;;;;38.35;25.02;;;;;;;18.80;64.15;100052.13;4992358;28;20043;-68
2022/05/24 02:57:58;;;;;;;36.67;25.30;;;;;;;19.62;61.80;100055.78;4991862;28;20505;-66
2022/05/24 03:00:25;;;;;;;35.83;26.10;;;;;;;19.38;62.08;100059.84;4992072;28;20046;-66
2022/05/24 03:02:52;;;;;;;45.20;28.10;;;;;;;19.26;62.00;100060.31;4991890;28;20054;-65
2022/05/24 03:05:19;;;;;;;40.72;24.50;;;;;;;18.83;63.96;100050.75;4991916;28;20041;-67
2022/05/24 03:10:30;;;;;;;41.90;24.75;;;;;;;19.27;62.00;100070.91;4991936;28;20057;-66
2022/05/24 03:15:42;;;;;;;38.00;24.27;;;;;;;19.23;62.40;100069.88;4994801;28;20574;-66
2022/05/24 03:18:09;;;;;;;31.55;24.70;;;;;;;19.67;60.84;100074.78;4995760;28;20121;-67
2022/05/24 03:20:34;;;;;;;37.17;25.92;;;;;;;19.19;62.48;100066.13;4995508;28;20034;-66
2022/05/24 03:23:02;;;;;;;48.47;28.17;;;;;;;18.95;62.54;100064.66;4995145;28;20026;-66
2022/05/24 03:25:27;;;;;;;42.17;27.30;;;;;;;18.74;63.03;100061.50;4996047;28;20113;-66
2022/05/24 03:27:53;;;;;;;48.88;29.70;;;;;;;18.99;62.02;100054.78;4995373;28;20125;-66
2022/05/24 03:30:18;;;;;;;42.65;28.88;;;;;;;18.97;62.11;100060.53;5010555;28;20038;-66
2022/05/24 03:32:44;;;;;;;38.67;27.85;;;;;;;18.96;62.09;100063.56;4995318;28;20030;-66
2022/05/24 03:35:13;;;;;;;37.28;26.65;;;;;;;19.37;60.78;100066.38;4995229;28;20047;-65
2022/05/24 03:37:39;;;;;;;45.85;26.92;;;;;;;19.61;59.84;100070.53;4995436;28;20035;-64
2022/05/24 03:40:05;;;;;;;33.95;24.98;;;;;;;19.19;61.27;100062.59;4994785;28;20050;-66
2022/05/24 03:42:31;;;;;;;35.90;23.85;;;;;;;18.29;63.19;100067.63;4994637;28;20126;-66
2022/05/24 03:44:56;;;;;;;34.90;24.20;;;;;;;19.19;61.00;100057.97;4995087;28;20126;-65
2022/05/24 03:47:22;;;;;;;37.22;24.92;;;;;;;19.14;60.20;100055.31;4995034;28;20031;-66
2022/05/24 03:49:47;;;;;;;37.05;24.77;;;;;;;18.98;61.19;100058.63;4995444;28;20065;-65
2022/05/24 03:52:13;;;;;;;33.88;24.25;;;;;;;19.07;60.45;100067.72;4994711;28;20034;-64
2022/05/24 03:54:38;;;;;;;30.70;22.60;;;;;;;18.98;60.71;100067.63;4994741;28;20074;-65
2022/05/24 03:59:48;;;;;;;36.22;22.17;;;;;;;19.09;60.03;100077.22;4995052;28;20132;-65
2022/05/24 04:02:13;;;;;;;32.00;20.77;;;;;;;18.74;61.14;100072.38;4992192;28;20039;-65
2022/05/24 04:04:39;;;;;;;36.30;21.25;;;;;;;18.68;60.88;100084.47;4994672;28;20049;-66
2022/05/24 04:07:05;;;;;;;32.13;19.60;;;;;;;18.74;60.59;100087.91;4994352;28;20117;-66
2022/05/24 04:09:34;;;;;;;28.83;17.73;;;;;;;19.33;59.04;100093.44;4992956;28;20066;-64
2022/05/24 04:12:00;;;;;;;24.42;17.38;;;;;;;18.25;61.08;100099.22;4994589;28;20030;-65
2022/05/24 04:14:25;;;;;;;25.20;17.73;;;;;;;18.38;61.43;100102.03;4994590;28;20073;-66
2022/05/24 04:16:52;;;;;;;34.47;16.45;;;;;;;19.12;59.38;100098.38;4994955;28;20034;-66
2022/05/24 04:19:17;;;;;;;34.63;19.10;;;;;;;19.38;58.51;100098.00;4994518;28;20065;-65
2022/05/24 04:21:43;;;;;;;24.60;17.42;;;;;;;19.37;58.10;100097.16;4986967;28;20071;-67
2022/05/24 04:24:09;;;;;;;29.58;16.63;;;;;;;19.52;57.85;100088.69;4991623;28;20042;-65
2022/05/24 04:26:34;;;;;;;29.27;17.13;;;;;;;19.30;58.79;100089.34;4992604;28;20058;-65
2022/05/24 04:28:59;;;;;;;37.00;19.17;;;;;;;19.04;58.79;100090.94;4994145;28;20320;-66
2022/05/24 04:31:25;;;;;;;28.83;17.65;;;;;;;19.49;57.71;100092.03;4994615;28;20078;-65
2022/05/24 04:33:50;;;;;;;29.83;16.25;;;;;;;19.12;58.75;100092.94;4994322;28;20045;-65
2022/05/24 04:36:16;;;;;;;28.95;17.38;;;;;;;19.68;57.22;100102.81;4993784;28;20093;-66
2022/05/24 04:38:42;;;;;;;24.08;16.33;;;;;;;18.84;59.37;100104.06;4994163;28;20038;-65
2022/05/24 04:43:52;;;;;;;23.15;16.10;;;;;;;18.45;60.69;100107.13;4994316;28;20128;-65
2022/05/24 04:46:18;;;;;;;24.80;15.23;;;;;;;18.54;59.95;100104.53;4993805;28;20034;-65
2022/05/24 04:48:44;;;;;;;30.67;16.08;;;;;;;19.04;59.04;100115.44;4993964;28;20042;-66
2022/05/24 04:51:09;;;;;;;29.30;15.55;;;;;;;19.48;57.58;100127.78;4993754;28;20042;-66
2022/05/24 04:53:34;;;;;;;27.55;16.67;;;;;;;19.01;58.44;100126.91;4994032;28;20034;-65
2022/05/24 04:56:01;;;;;;;33.25;18.45;;;;;;;19.32;58.53;100127.19;4993842;28;20493;-66
2022/05/24 04:58:26;;;;;;;25.45;16.50;;;;;;;19.20;58.74;100149.47;4994136;28;20049;-67
2022/05/24 05:00:52;;;;;;;27.13;17.88;;;;;;;19.59;57.63;100151.00;4992098;28;20091;-66
2022/05/24 05:03:19;;;;;;;30.10;16.30;;;;;;;19.55;57.81;100164.41;4993448;28;20073;-66
2022/05/24 05:05:46;;;;;;;30.35;17.08;;;;;;;20.04;56.39;100161.00;4993475;28;20038;-66
2022/05/24 05:08:11;;;;;;;26.27;17.15;;;;;;;19.47;57.12;100165.13;4993049;28;20386;-65
2022/05/24 05:10:37;;;;;;;27.63;17.45;;;;;;;19.55;57.81;100163.59;4993754;28;20141;-65
2022/05/24 05:13:04;;;;;;;29.30;17.17;;;;;;;19.67;57.88;100158.47;4993474;28;20484;-66
2022/05/24 05:15:30;;;;;;;28.17;17.13;;;;;;;19.22;58.75;100162.81;4989357;28;20038;-67
2022/05/24 05:18:04;;;;;;;27.15;18.30;;;;;;;19.80;57.64;100147.56;4989611;28;20105;-67
2022/05/24 05:20:30;;;;;;;35.28;17.52;;;;;;;19.49;58.12;100146.53;4992147;28;20671;-66
2022/05/24 05:22:56;;;;;;;31.60;17.52;;;;;;;19.27;58.42;100149.09;4992149;28;20030;-66
2022/05/24 05:25:21;;;;;;;27.20;16.58;;;;;;;19.21;59.08;100162.00;4993579;28;20030;-65
2022/05/24 05:27:46;;;;;;;22.75;17.48;;;;;;;19.01;59.25;100172.41;4993076;28;20034;-65
2022/05/24 05:32:56;;;;;;;27.48;17.42;;;;;;;19.11;59.15;100167.59;4991973;28;20084;-65
2022/05/24 05:35:21;;;;;;;28.55;16.08;;;;;;;19.30;57.86;100171.09;4992738;28;20042;-65
2022/05/24 05:37:47;;;;;;;22.45;15.85;;;;;;;19.24;58.06;100166.03;4992726;28;20042;-65
2022/05/24 05:40:13;;;;;;;27.58;16.13;;;;;;;18.92;59.63;100166.03;4992340;28;20042;-65
2022/05/24 05:42:39;;;;;;;24.27;15.07;;;;;;;19.40;57.86;100159.22;4990284;28;20382;-66
2022/05/24 05:45:06;;;;;;;22.80;16.08;;;;;;;19.10;59.17;100165.97;4992348;28;20038;-66
2022/05/24 05:47:31;;;;;;;25.63;14.95;;;;;;;18.43;60.67;100169.19;4989952;28;20035;-65
2022/05/24 05:49:57;;;;;;;30.38;15.50;;;;;;;18.90;58.81;100155.44;4991401;28;20540;-65
2022/05/24 05:52:23;;;;;;;23.92;14.88;;;;;;;19.37;58.22;100157.13;4984097;28;20026;-66
2022/05/24 05:54:48;;;;;;;21.48;14.73;;;;;;;19.65;57.35;100166.97;4992262;28;20514;-66
2022/05/24 05:57:13;;;;;;;25.30;14.85;;;;;;;19.00;59.29;100168.88;4991604;28;20042;-66
2022/05/24 05:59:39;;;;;;;19.10;11.52;;;;;;;18.57;60.43;100194.59;4981359;28;20038;-65
2022/05/24 06:02:05;;;;;;;19.80;13.70;;;;;;;19.14;58.64;100207.84;4991433;28;20026;-67
2022/05/24 06:04:30;;;;;;;26.50;13.52;;;;;;;18.66;59.47;100206.41;4992051;28;20031;-65
2022/05/24 06:06:56;;;;;;;22.23;13.05;;;;;;;18.77;59.58;100212.53;4982869;28;20434;-66
2022/05/24 06:09:21;;;;;;;28.17;13.73;;;;;;;18.56;60.26;100209.28;4981363;28;20053;-66
2022/05/24 06:11:47;;;;;;;22.98;12.15;;;;;;;18.23;61.03;100202.06;4981217;28;20031;-65
2022/05/24 06:14:12;;;;;;;20.83;13.80;;;;;;;19.32;58.00;100197.25;4982142;28;20545;-64
2022/05/24 06:16:38;;;;;;;25.60;13.23;;;;;;;18.68;60.37;100200.69;4982587;28;20042;-65
2022/05/24 06:19:05;;;;;;;19.30;12.98;;;;;;;18.89;58.94;100202.81;4985997;28;20129;-65
2022/05/24 06:21:34;;;;;;;24.48;13.55;;;;;;;18.47;60.15;100216.47;4990801;28;20050;-65
2022/05/24 06:24:04;;;;;;;18.15;13.20;;;;;;;19.13;58.22;100206.25;4991410;28;20058;-64
2022/05/24 06:26:30;;;;;;;21.13;13.43;;;;;;;19.34;58.24;100197.78;4992503;28;20109;-66
2022/05/24 06:28:57;;;;;;;26.05;14.77;;;;;;;18.57;60.17;100208.19;4991542;28;20052;-65
2022/05/24 06:31:24;;;;;;;20.63;14.30;;;;;;;19.22;58.16;100206.41;4991955;28;20030;-65
2022/05/24 06:33:49;;;;;;;17.63;11.98;;;;;;;18.64;59.30;100211.34;4991707;28;20072;-66
2022/05/24 06:36:14;;;;;;;20.55;14.05;;;;;;;19.12;58.23;100201.09;4991093;28;20084;-66
2022/05/24 06:38:40;;;;;;;25.23;12.88;;;;;;;18.99;58.24;100210.81;4991470;28;20625;-65
2022/05/24 06:41:05;;;;;;;17.58;11.30;;;;;;;18.77;58.78;100223.44;4990942;28;20050;-65
2022/05/24 06:43:32;;;;;;;26.33;12.65;;;;;;;18.91;59.04;100225.09;4991649;28;20034;-66
2022/05/24 06:45:57;;;;;;;23.85;11.20;;;;;;;18.29;60.71;100242.53;5006640;28;20081;-64
2022/05/24 06:48:23;;;;;;;21.50;12.00;;;;;;;19.42;57.58;100259.78;4990943;28;20379;-65
2022/05/24 06:50:48;;;;;;;16.67;10.95;;;;;;;19.11;57.74;100275.75;4993929;28;20042;-63
2022/05/24 06:53:13;;;;;;;19.08;11.82;;;;;;;19.32;57.55;100273.53;4994339;28;20038;-67
2022/05/24 06:55:40;;;;;;;24.00;12.32;;;;;;;18.90;58.34;100274.41;4995336;28;20035;-66
2022/05/24 06:58:06;;;;;;;19.17;11.57;;;;;;;19.21;57.67;100261.97;4994477;28;20104;-65
2022/05/24 07:03:16;;;;;;;20.88;10.63;;;;;;;19.09;57.55;100277.94;4994713;28;20111;-66
2022/05/24 07:05:43;;;;;;;18.48;10.02;;;;;;;18.67;58.94;100286.97;4994865;28;20046;-65
2022/05/24 07:08:09;;;;;;;17.30;8.27;;;;;;;18.93;58.10;100285.53;4994986;28;20073;-66
2022/05/24 07:10:35;;;;;;;17.10;8.30;;;;;;;19.58;56.01;100286.47;4995078;28;20030;-66
2022/05/24 07:13:04;;;;;;;14.35;8.73;;;;;;;18.73;57.89;100291.22;4994586;28;20396;-65
2022/05/24 07:15:30;;;;;;;19.85;9.75;;;;;;;18.90;57.45;100298.91;4994476;28;20034;-66
2022/05/24 07:17:56;;;;;;;12.02;8.07;;;;;;;19.59;55.80;100290.81;4994837;28;20410;-65
2022/05/24 07:20:22;;;;;;;14.93;8.30;;;;;;;19.07;56.29;100308.22;4994332;28;20034;-65
2022/05/24 07:22:48;;;;;;;14.80;8.82;;;;;;;19.14;57.14;100299.69;4994972;28;20038;-66
2022/05/24 07:25:15;;;;;;;16.45;8.93;;;;;;;19.68;56.01;100305.38;4994460;28;20086;-66
2022/05/24 07:27:40;;;;;;;11.70;7.75;;;;;;;19.03;56.56;100318.06;4994025;28;20030;-67
2022/05/24 07:30:06;;;;;;;13.27;7.65;;;;;;;19.77;55.73;100300.84;4994056;28;20085;-65
2022/05/24 07:32:32;;;;;;;20.48;9.13;;;;;;;19.98;54.77;100304.88;4994005;28;20517;-65
2022/05/24 07:34:59;;;;;;;17.23;7.45;;;;;;;19.03;56.22;100311.81;4992597;28;20049;-66
2022/05/24 07:37:24;;;;;;;14.40;8.10;;;;;;;19.12;55.87;100312.78;4992171;28;20026;-66
2022/05/24 07:45:47;;;;;;;14.95;7.65;;;;;;;19.03;56.79;100317.25;4994167;28;20038;-65
2022/05/24 07:48:05;;;;;;;10.65;5.97;;;;;;;18.82;56.79;100318.63;4994042;28;20136;-65
2022/05/24 07:50:30;;;;;;;13.63;6.45;;;;;;;19.69;54.82;100309.75;4993569;28;20038;-66
2022/05/24 07:52:56;;;;;;;13.18;5.75;;;;;;;19.49;53.97;100314.69;4994084;28;20482;-67
2022/05/24 07:55:21;;;;;;;9.48;5.28;;;;;;;20.13;52.93;100322.88;4994262;28;20077;-65
2022/05/24 07:57:47;;;;;;;12.40;5.00;;;;;;;19.80;52.44;100324.81;4993957;28;20133;-65
2022/05/24 08:00:13;;;;;;;9.73;4.85;;;;;;;19.92;53.11;100322.44;4993116;28;20038;-66
2022/05/24 08:02:41;;;;;;;9.65;4.38;;;;;;;19.29;54.00;100337.59;4993073;28;20047;-64
2022/05/24 08:05:07;;;;;;;12.85;4.82;;;;;;;19.72;52.35;100341.03;4993364;28;20455;-66
2022/05/24 08:07:32;;;;;;;13.18;5.18;;;;;;;20.70;50.71;100327.78;4994281;28;20165;-66
2022/05/24 08:09:58;;;;;;;14.85;4.22;;;;;;;20.51;50.25;100326.28;4992355;28;20034;-65
2022/05/24 08:12:23;;;;;;;19.10;5.38;;;;;;;20.30;50.78;100334.06;4993626;28;20495;-66
2022/05/24 08:14:49;;;;;;;8.30;4.05;;;;;;;20.55;49.13;100340.94;4993533;28;20038;-65
2022/05/24 08:17:14;;;;;;;8.85;3.28;;;;;;;20.33;49.89;100336.16;5007822;28;20030;-65
2022/05/24 08:19:39;;;;;;;5.80;4.32;;;;;;;20.79;49.57;100334.16;4993500;28;20030;-66
2022/05/24 08:22:06;;;;;;;6.65;3.97;;;;;;;20.24;51.32;100340.72;4993814;28;20410;-65
2022/05/24 08:24:32;;;;;;;11.40;3.90;;;;;;;20.61;50.30;100340.53;4990870;28;20061;-65
2022/05/24 08:26:58;;;;;;;11.00;3.97;;;;;;;20.42;50.09;100334.34;4994288;28;20586;-66
2022/05/24 08:29:23;;;;;;;11.90;4.20;;;;;;;19.59;51.82;100353.53;4994151;28;20088;-65
2022/05/24 08:31:49;;;;;;;12.23;4.60;;;;;;;20.58;50.14;100352.06;4986800;28;20068;-64
2022/05/24 08:34:14;;;;;;;6.53;3.67;;;;;;;19.59;52.83;100360.88;4986349;28;20491;-64
2022/05/24 08:36:40;;;;;;;7.55;4.43;;;;;;;19.01;54.79;100361.13;4994097;28;20056;-65
2022/05/24 08:39:05;;;;;;;6.55;4.00;;;;;;;18.90;54.26;100348.75;4993876;28;20042;-64
2022/05/24 08:41:39;;;;;;;9.98;4.18;;;;;;;18.96;54.75;100360.38;4993826;28;20042;-65
2022/05/24 08:50:14;;;;;;;6.20;3.38;;;;;;;19.17;53.12;100376.16;4952474;28;20073;-65
2022/05/24 08:52:47;;;;;;;11.02;3.50;;;;;;;19.51;52.92;100369.72;4952929;28;20031;-65
2022/05/24 08:55:14;;;;;;;6.18;2.75;;;;;;;19.21;52.89;100369.03;4952746;28;20039;-66
2022/05/24 08:57:47;;;;;;;3.55;2.42;;;;;;;18.73;52.24;100389.22;4961501;28;20161;-65
2022/05/24 09:00:17;;;;;;;5.20;2.58;;;;;;;18.48;54.65;100385.97;4968514;28;20625;-66
2022/05/24 09:02:45;;;;;;;4.93;2.92;;;;;;;19.08;51.85;100374.41;4955137;28;20043;-64
2022/05/24 09:05:40;;;;;;;8.80;1.58;;;;;;;18.52;53.17;100379.69;4967744;28;20043;-65
2022/05/24 09:08:47;;;;;;;7.28;2.58;;;;;;;18.90;53.65;100383.34;4957790;28;20031;-66
2022/05/24 09:11:43;;;;;;;3.65;1.95;;;;;;;19.40;51.63;100390.84;4913406;29;20165;-66
2022/05/24 09:14:20;;;;;;;4.32;2.03;;;;;;;19.47;49.92;100383.13;4913462;29;20510;-66
2022/05/24 09:16:52;;;;;;;4.22;1.88;;;;;;;19.34;50.57;100386.56;4914329;29;20062;-65
2022/05/24 09:19:23;;;;;;;5.70;1.38;;;;;;;19.38;50.30;100379.44;4910760;29;20680;-64
2022/05/24 09:21:52;;;;;;;2.55;1.10;;;;;;;19.90;48.99;100379.19;4902325;29;20036;-65
2022/05/24 09:24:41;;;;;;;3.10;1.33;;;;;;;19.69;48.75;100391.53;4911566;29;20044;-65
2022/05/24 09:27:22;;;;;;;4.88;1.35;;;;;;;19.46;48.74;100406.03;4912686;29;20040;-68
2022/05/24 09:30:23;;;;;;;4.32;1.52;;;;;;;18.40;55.89;100417.31;4912399;29;20032;-66
2022/05/24 09:32:49;;;;;;;1.77;0.90;;;;;;;18.69;55.31;100415.41;4912370;29;20147;-66
2022/05/24 09:35:18;;;;;;;2.72;1.60;;;;;;;18.32;57.34;100420.66;4904927;29;20626;-65
2022/05/24 09:37:46;;;;;;;2.92;1.45;;;;;;;18.28;57.19;100423.13;4902335;29;20123;-67
2022/05/24 09:40:23;;;;;;;2.10;1.35;;;;;;;17.89;57.88;100424.28;4912991;29;20127;-67
2022/05/24 09:42:49;;;;;;;1.02;0.98;;;;;;;17.83;56.69;100434.38;4912570;29;20566;-67
2022/05/24 09:45:18;;;;;;;4.28;1.15;;;;;;;18.60;54.05;100427.22;4913007;29;20068;-67
2022/05/24 09:47:43;;;;;;;1.30;0.82;;;;;;;17.81;55.70;100425.69;4988025;28;20030;-65
2022/05/24 09:50:18;;;;;;;4.07;0.70;;;;;;;18.87;53.79;100422.03;4992653;28;20037;-66
2022/05/24 09:53:03;;;;;;;2.08;0.90;;;;;;;19.10;54.50;100430.19;4993131;28;20022;-67
2022/05/24 09:55:55;;;;;;;3.22;1.20;;;;;;;18.82;56.51;100435.69;4992526;28;20136;-66
2022/05/24 09:58:36;;;;;;;1.27;0.90;;;;;;;19.38;54.02;100441.31;4992958;28;20402;-67
2022/05/24 10:01:06;;;;;;;1.92;1.13;;;;;;;19.79;53.47;100437.72;4992525;28;20030;-67
2022/05/24 10:03:40;;;;;;;3.13;1.63;;;;;;;20.08;52.73;100441.09;4992659;28;20093;-67
2022/05/24 10:06:10;;;;;;;4.65;1.45;;;;;;;20.99;51.90;100436.75;4972960;28;20569;-66
2022/05/24 10:08:40;;;;;;;;;;;;;;;19.95;53.68;100457.41;4973703;28;20043;-66
2022/05/24 10:11:21;;;;;;;5.65;1.45;;;;;;;19.24;53.51;100468.44;4973093;28;19914;-65
2022/05/24 10:14:10;;;;;;;3.85;1.40;;;;;;;19.91;51.83;100459.09;4973468;28;20035;-65
2022/05/24 10:16:39;;;;;;;2.40;1.70;;;;;;;20.59;51.14;100460.16;4986462;28;20100;-67
2022/05/24 10:19:07;;;;;;;2.65;1.02;;;;;;;19.47;53.67;100467.63;4992403;28;20038;-66
2022/05/24 10:21:53;;;;;;;2.97;1.42;;;;;;;19.14;54.97;100472.06;4992389;28;20521;-66
2022/05/24 10:24:38;;;;;;;3.55;1.35;;;;;;;19.76;53.36;100472.94;4991849;28;20047;-67
2022/05/24 10:27:30;;;;;;;3.80;1.95;;;;;;;19.57;54.86;100472.13;4992028;28;20491;-66
2022/05/24 10:30:03;;;;;;;8.57;1.85;;;;;;;20.16;53.01;100483.25;4991207;28;20126;-66
2022/05/24 10:38:32;;;;;;;0.90;0.40;;;;;;;16.94;58.56;100562.16;4991716;28;20108;-66
2022/05/24 10:41:15;;;;;;;1.10;0.50;;;;;;;17.13;59.75;100565.91;4991552;28;20026;-66
2022/05/24 10:44:11;;;;;;;1.98;0.70;;;;;;;16.27;62.50;100569.69;4991109;28;20042;-66
2022/05/24 10:46:58;;;;;;;2.15;0.63;;;;;;;17.52;61.02;100564.19;4979370;28;20057;-65
2022/05/24 10:49:48;;;;;;;1.52;0.70;;;;;;;17.09;61.80;100551.25;4990518;28;20034;-66
2022/05/24 10:52:39;;;;;;;1.75;0.75;;;;;;;17.63;61.09;100548.66;4991767;28;20074;-64
2022/05/24 10:55:12;;;;;;;0.98;0.80;;;;;;;18.28;59.61;100555.63;4990988;28;20039;-65
2022/05/24 10:58:11;;;;;;;1.10;1.00;;;;;;;17.61;60.05;100542.66;4989758;28;20060;-65
2022/05/24 11:00:41;;;;;;;1.10;1.00;;;;;;;18.79;59.14;100550.63;4988919;28;20045;-65
2022/05/24 11:03:10;;;;;;;2.15;1.02;;;;;;;18.56;60.00;100544.00;4991623;28;20054;-64
2022/05/24 11:05:38;;;;;;;1.40;1.17;;;;;;;18.90;59.29;100536.63;4989180;28;20189;-66
2022/05/24 11:08:19;;;;;;;2.60;1.63;;;;;;;19.54;57.85;100546.28;4991731;28;20034;-70
2022/05/24 11:10:48;;;;;;;3.33;1.90;;;;;;;19.52;57.96;100559.44;4983455;28;20030;-72
2022/05/24 11:13:20;;;;;;;3.33;2.40;;;;;;;18.58;60.79;100555.44;4988456;28;20069;-70
2022/05/24 11:15:52;;;;;;;3.92;2.53;;;;;;;18.89;61.00;100561.41;4991100;28;20038;-70
2022/05/24 11:18:24;;;;;;;3.70;2.05;;;;;;;18.99;60.62;100569.47;4991027;28;20049;-70
2022/05/24 11:21:00;;;;;;;3.13;2.15;;;;;;;19.48;61.72;100564.63;4991287;28;20506;-71
2022/05/24 11:23:32;;;;;;;4.32;3.00;;;;;;;19.25;61.45;100565.41;4990800;28;20495;-71
2022/05/24 11:26:11;;;;;;;3.75;2.70;;;;;;;19.65;60.49;100564.16;4991164;28;20109;-69
2022/05/24 11:28:46;;;;;;;5.80;3.67;;;;;;;19.42;59.37;100573.19;4991380;28;20507;-71
2022/05/24 11:31:38;;;;;;;11.23;3.55;;;;;;;19.58;59.33;100582.78;4990974;28;20161;-71
2022/05/24 11:34:18;;;;;;;3.22;2.47;;;;;;;20.31;56.96;100584.00;4991161;28;20038;-70
2022/05/24 11:37:02;;;;;;;4.78;3.85;;;;;;;20.14;57.48;100581.78;4994273;28;20038;-70
2022/05/24 11:39:38;;;;;;;5.57;3.47;;;;;;;20.23;56.01;100586.59;4994678;28;20034;-70
2022/05/24 11:42:41;;;;;;;8.68;3.03;;;;;;;19.66;54.90;100593.84;4994202;28;20053;-70
2022/05/24 11:45:28;;;;;;;5.68;2.60;;;;;;;19.36;55.46;100599.66;4994355;28;20062;-70
2022/05/24 11:47:56;;;;;;;6.82;2.47;;;;;;;18.97;55.88;100605.19;5009420;28;20035;-70
2022/05/24 11:50:30;;;;;;;3.30;2.50;;;;;;;19.24;56.29;100608.19;4994228;28;20053;-69
2022/05/24 11:53:02;;;;;;;3.28;2.35;;;;;;;19.22;54.94;100612.31;4994199;28;20431;-71
2022/05/24 11:55:40;;;;;;;3.50;2.72;;;;;;;19.36;55.21;100604.31;4994899;28;20081;-70
2022/05/24 11:58:20;;;;;;;3.47;2.55;;;;;;;18.33;58.16;100618.16;4993933;28;20038;-71
2022/05/24 12:00:56;;;;;;;4.03;2.67;;;;;;;18.88;57.49;100617.81;4994293;28;20129;-70
2022/05/24 12:09:16;;;;;;;4.05;2.58;;;;;;;19.72;54.19;100617.25;4994587;28;20136;-72
2022/05/24 12:11:42;;;;;;;5.97;2.58;;;;;;;19.86;53.68;100628.25;4994035;28;20061;-72
2022/05/24 12:14:28;;;;;;;6.38;2.63;;;;;;;19.83;54.50;100629.63;4993794;28;20030;-72
2022/05/24 12:16:53;;;;;;;3.95;3.05;;;;;;;19.20;55.97;100637.09;4955687;28;20440;-69
2022/05/24 12:19:43;;;;;;;6.97;3.72;;;;;;;20.23;52.89;100628.34;4952894;28;20138;-72